Time;durP1;ratioP1;P1;durP2;ratioP2;P2;SDS_P1;SDS_P2;PMS_P1;PMS_P2;Temp;Humidity;BMP_temperature;BMP_pressure;BME280_temperature;BME280_humidity;BME280_pressure;Samples;Min_cycle;Max_cycle;Signal;HPM_P1;HPM_P2
2021/10/03 00:00:43;;;;;;;18.83;12.68;;;;;;;12.64;100.00;102059.22;5116539;28;20344;-72
2021/10/03 00:03:29;;;;;;;18.40;11.48;;;;;;;12.61;100.00;102063.59;5115607;28;20481;-72
2021/10/03 00:06:17;;;;;;;19.75;11.73;;;;;;;12.82;100.00;102064.38;5101771;28;20418;-71
2021/10/03 00:09:03;;;;;;;17.60;11.70;;;;;;;13.09;100.00;102060.75;5115677;28;20031;-72
2021/10/03 00:11:50;;;;;;;20.50;11.98;;;;;;;12.63;100.00;102053.97;5101929;28;20043;-72
2021/10/03 00:14:36;;;;;;;21.95;12.38;;;;;;;12.83;100.00;102052.13;5117091;28;20019;-72
2021/10/03 00:17:22;;;;;;;21.88;12.77;;;;;;;12.49;100.00;102055.78;5116752;28;20466;-72
2021/10/03 00:20:10;;;;;;;18.90;12.25;;;;;;;12.79;100.00;102048.66;5116304;28;20099;-72
2021/10/03 00:22:56;;;;;;;17.60;11.98;;;;;;;12.47;100.00;102054.91;5115606;28;20058;-73
2021/10/03 00:25:42;;;;;;;18.67;12.45;;;;;;;12.64;100.00;102055.72;5115888;28;20093;-73
2021/10/03 00:28:28;;;;;;;18.17;12.90;;;;;;;12.60;100.00;102044.34;5116429;28;20462;-71
2021/10/03 00:31:14;;;;;;;18.88;13.05;;;;;;;12.61;100.00;102046.09;5115843;28;20042;-72
2021/10/03 00:34:00;;;;;;;18.80;13.10;;;;;;;12.80;100.00;102042.50;5116558;28;20028;-71
2021/10/03 00:36:45;;;;;;;20.80;13.52;;;;;;;12.65;100.00;102042.56;5116216;28;20376;-72
2021/10/03 00:39:31;;;;;;;20.38;13.65;;;;;;;12.32;100.00;102041.81;5116389;28;20031;-72
2021/10/03 00:42:17;;;;;;;23.25;14.10;;;;;;;12.26;100.00;102034.84;5116977;28;20081;-72
2021/10/03 00:45:05;;;;;;;20.80;14.65;;;;;;;12.10;100.00;102034.91;5101901;28;20080;-73
2021/10/03 00:47:51;;;;;;;22.63;14.63;;;;;;;12.50;100.00;102026.84;5115134;28;20023;-72
2021/10/03 00:50:38;;;;;;;21.67;15.52;;;;;;;12.32;100.00;102026.94;5116350;28;20023;-71
2021/10/03 00:53:24;;;;;;;23.70;17.38;;;;;;;12.44;100.00;102036.53;5102045;28;20023;-71
2021/10/03 00:56:15;;;;;;;23.02;17.17;;;;;;;12.55;100.00;102035.63;5116121;28;20023;-72
2021/10/03 00:59:01;;;;;;;26.88;20.02;;;;;;;12.25;100.00;102033.09;5101377;28;20027;-71
2021/10/03 01:01:47;;;;;;;31.42;21.55;;;;;;;12.40;100.00;102033.03;5116926;28;20031;-71
2021/10/03 01:04:33;;;;;;;32.75;22.08;;;;;;;12.58;100.00;102027.69;5100540;28;20093;-71
2021/10/03 01:07:19;;;;;;;37.38;22.92;;;;;;;12.40;100.00;102034.78;5116223;28;20167;-72
2021/10/03 01:10:11;;;;;;;34.35;22.77;;;;;;;12.26;100.00;102032.22;5099611;28;20340;-71
2021/10/03 01:13:05;;;;;;;37.38;25.45;;;;;;;12.53;100.00;102029.47;5114977;28;20100;-72
2021/10/03 01:15:52;;;;;;;43.60;25.23;;;;;;;12.29;100.00;102028.69;5099889;28;20124;-72
2021/10/03 01:18:38;;;;;;;38.83;26.65;;;;;;;12.38;100.00;102033.94;5116121;28;20062;-72
2021/10/03 01:21:25;;;;;;;37.28;25.70;;;;;;;11.64;100.00;102038.47;5116296;28;20039;-72
2021/10/03 01:24:12;;;;;;;38.10;27.25;;;;;;;12.28;100.00;102040.97;5114821;28;20030;-72
2021/10/03 01:26:58;;;;;;;37.00;25.08;;;;;;;12.07;100.00;102040.16;5114518;28;20019;-72
2021/10/03 01:29:45;;;;;;;37.13;27.08;;;;;;;11.98;100.00;102035.78;5115556;28;20106;-72
2021/10/03 01:32:30;;;;;;;32.35;21.25;;;;;;;12.07;100.00;102027.91;5114383;28;20360;-72
2021/10/03 01:35:17;;;;;;;29.02;17.50;;;;;;;11.69;100.00;102027.09;5115650;28;20118;-72
2021/10/03 01:38:03;;;;;;;22.67;15.10;;;;;;;11.50;100.00;102017.47;5099198;28;20031;-72
2021/10/03 01:40:50;;;;;;;25.48;15.27;;;;;;;11.39;100.00;102021.84;5099653;28;20085;-72
2021/10/03 01:43:35;;;;;;;18.98;12.48;;;;;;;11.75;100.00;102023.59;5100653;28;20095;-72
2021/10/03 01:46:21;;;;;;;23.05;13.00;;;;;;;11.89;100.00;102024.47;5115055;28;20042;-73
2021/10/03 01:49:07;;;;;;;21.52;12.75;;;;;;;12.14;100.00;102020.88;5115787;28;20041;-74
2021/10/03 01:51:53;;;;;;;15.32;11.30;;;;;;;11.86;100.00;102027.09;5099509;28;20031;-74
2021/10/03 01:54:39;;;;;;;14.63;10.95;;;;;;;11.71;100.00;102020.09;5100541;28;20027;-74
2021/10/03 01:57:25;;;;;;;15.07;10.80;;;;;;;11.87;100.00;102023.56;5114921;28;20463;-74
2021/10/03 02:00:11;;;;;;;18.35;11.68;;;;;;;12.02;100.00;102028.78;5115216;28;20031;-71
2021/10/03 02:03:00;;;;;;;16.58;10.70;;;;;;;11.67;100.00;102028.88;5115088;28;20068;-73
2021/10/03 02:05:47;;;;;;;18.75;11.43;;;;;;;11.21;100.00;102034.94;5101385;28;20444;-73
2021/10/03 02:08:32;;;;;;;16.50;11.35;;;;;;;11.51;100.00;102023.56;5113636;28;20059;-74
2021/10/03 02:11:19;;;;;;;16.55;11.38;;;;;;;11.50;100.00;102020.09;5115275;28;20044;-73
2021/10/03 02:14:05;;;;;;;17.02;11.63;;;;;;;11.37;100.00;102018.31;5098941;28;20426;-74
2021/10/03 02:16:52;;;;;;;17.90;11.98;;;;;;;11.17;100.00;102024.47;5113328;28;20020;-74
2021/10/03 02:19:40;;;;;;;15.80;11.45;;;;;;;11.42;100.00;102013.09;5113785;28;20051;-74
2021/10/03 02:22:26;;;;;;;21.23;12.82;;;;;;;10.98;100.00;102026.19;5113432;28;20028;-74
2021/10/03 02:25:13;;;;;;;17.63;12.00;;;;;;;11.07;100.00;102020.94;5114726;28;20031;-74
2021/10/03 02:28:02;;;;;;;19.30;11.35;;;;;;;11.39;100.00;102015.72;5100275;28;20049;-74
2021/10/03 02:30:50;;;;;;;16.30;10.75;;;;;;;11.71;100.00;102022.72;5113569;28;20420;-76
2021/10/03 02:33:37;;;;;;;17.33;10.85;;;;;;;10.99;100.00;102027.94;5113346;28;20034;-72
2021/10/03 02:36:22;;;;;;;15.60;11.00;;;;;;;10.80;100.00;102018.28;5113627;28;20027;-74
2021/10/03 02:39:08;;;;;;;15.10;10.45;;;;;;;11.16;100.00;102025.31;5114676;28;20058;-73
2021/10/03 02:41:54;;;;;;;20.23;11.65;;;;;;;11.14;100.00;102022.72;5114795;28;20062;-75
2021/10/03 02:44:40;;;;;;;19.00;13.20;;;;;;;11.06;100.00;102020.94;5114521;28;20220;-74
2021/10/03 02:47:26;;;;;;;24.00;12.90;;;;;;;10.91;100.00;102024.41;5115259;28;20388;-73
2021/10/03 02:50:12;;;;;;;22.88;13.23;;;;;;;10.68;100.00;102028.72;5099198;28;20019;-75
2021/10/03 02:52:58;;;;;;;26.15;13.65;;;;;;;11.21;100.00;102037.56;5113653;28;20016;-73
2021/10/03 02:55:44;;;;;;;23.27;13.63;;;;;;;11.28;100.00;102028.84;5114901;28;20058;-72
2021/10/03 02:58:30;;;;;;;27.25;15.20;;;;;;;10.99;100.00;102040.16;5114107;28;20044;-72
2021/10/03 03:01:17;;;;;;;26.08;15.25;;;;;;;10.87;100.00;102043.63;5099420;28;20039;-73
2021/10/03 03:04:03;;;;;;;32.05;16.95;;;;;;;10.48;100.00;102048.75;5114147;28;20436;-73
2021/10/03 03:06:49;;;;;;;27.67;16.17;;;;;;;10.71;100.00;102041.84;5114320;28;20037;-72
2021/10/03 03:09:35;;;;;;;26.35;15.45;;;;;;;10.54;100.00;102040.03;5112899;28;20035;-72
2021/10/03 03:12:20;;;;;;;26.88;16.10;;;;;;;10.45;100.00;102046.09;5099514;28;20043;-74
2021/10/03 03:15:08;;;;;;;26.42;17.02;;;;;;;10.72;100.00;102033.09;5114813;28;20070;-73
2021/10/03 03:17:54;;;;;;;25.88;16.67;;;;;;;10.52;100.00;102026.91;5114292;28;20024;-74
2021/10/03 03:20:40;;;;;;;28.33;16.45;;;;;;;10.68;100.00;102031.34;5114496;28;20088;-72
2021/10/03 03:23:26;;;;;;;24.20;13.98;;;;;;;10.74;100.00;102030.50;5113483;28;20044;-72
2021/10/03 03:26:12;;;;;;;22.15;13.10;;;;;;;10.62;100.00;102033.06;5112939;28;20444;-71
2021/10/03 03:28:58;;;;;;;20.98;13.55;;;;;;;10.65;100.00;102028.72;5113843;28;20371;-71
2021/10/03 03:31:44;;;;;;;20.15;12.55;;;;;;;10.75;100.00;102030.50;5100591;28;20364;-72
2021/10/03 03:34:31;;;;;;;19.73;12.35;;;;;;;10.74;100.00;102041.88;5117557;28;20039;-72
2021/10/03 03:37:17;;;;;;;20.02;12.75;;;;;;;10.50;100.00;102041.78;5102990;28;20035;-72
2021/10/03 03:40:06;;;;;;;24.20;13.07;;;;;;;10.49;100.00;102037.38;5116925;28;20020;-72
2021/10/03 03:42:53;;;;;;;20.83;13.07;;;;;;;10.20;100.00;102044.25;5102418;28;20084;-72
2021/10/03 03:45:39;;;;;;;25.17;12.52;;;;;;;10.18;100.00;102036.38;5117524;28;20034;-72
2021/10/03 03:48:25;;;;;;;20.50;12.88;;;;;;;10.01;100.00;102037.16;5117586;28;20032;-72
2021/10/03 03:51:11;;;;;;;20.73;14.25;;;;;;;10.14;100.00;102037.22;5117737;28;20034;-72
2021/10/03 03:53:56;;;;;;;23.50;15.10;;;;;;;9.96;100.00;102036.22;5116705;28;20028;-72
2021/10/03 03:56:42;;;;;;;19.67;14.43;;;;;;;10.00;100.00;102041.50;5116095;28;20024;-72
2021/10/03 03:59:28;;;;;;;21.60;14.05;;;;;;;9.99;100.00;102050.22;5117561;28;20028;-72
2021/10/03 04:02:18;;;;;;;22.20;15.95;;;;;;;10.44;100.00;102056.59;5117532;28;20016;-72
2021/10/03 04:05:04;;;;;;;18.98;13.93;;;;;;;10.74;100.00;102057.59;5116434;28;20023;-72
2021/10/03 04:07:50;;;;;;;22.33;14.18;;;;;;;10.80;100.00;102064.59;5115726;28;20416;-72
2021/10/03 04:10:36;;;;;;;23.48;13.50;;;;;;;10.07;100.00;102059.03;5116216;28;20463;-72
2021/10/03 04:13:22;;;;;;;20.13;13.65;;;;;;;10.37;100.00;102058.28;5117464;28;20122;-72
2021/10/03 04:16:08;;;;;;;21.92;13.27;;;;;;;10.52;100.00;102070.63;5115755;28;20062;-72
2021/10/03 04:18:54;;;;;;;20.58;13.43;;;;;;;10.82;100.00;102073.34;5117259;28;20409;-72
2021/10/03 04:21:40;;;;;;;20.90;14.10;;;;;;;11.01;100.00;102073.38;5116794;28;20399;-71
2021/10/03 04:24:25;;;;;;;22.63;13.48;;;;;;;10.74;100.00;102077.69;5116774;28;20023;-71
2021/10/03 04:27:11;;;;;;;21.52;14.43;;;;;;;11.00;100.00;102078.59;5116535;28;20085;-71
2021/10/03 04:29:57;;;;;;;24.63;15.07;;;;;;;11.15;100.00;102087.41;5116384;28;20031;-72
2021/10/03 04:32:43;;;;;;;28.88;14.50;;;;;;;10.86;100.00;102082.97;5116980;28;20042;-72
2021/10/03 04:35:29;;;;;;;23.60;14.77;;;;;;;10.81;100.00;102082.94;5117240;28;20451;-71
2021/10/03 04:38:14;;;;;;;24.95;15.30;;;;;;;10.95;100.00;102090.84;5116545;28;20053;-71
2021/10/03 04:41:00;;;;;;;22.52;15.70;;;;;;;11.03;100.00;102094.38;5115098;28;20043;-72
2021/10/03 04:43:46;;;;;;;26.58;16.25;;;;;;;11.09;100.00;102087.38;5115542;28;20135;-71
2021/10/03 04:46:32;;;;;;;26.13;17.17;;;;;;;11.04;100.00;102088.25;5116109;28;20106;-72
2021/10/03 04:49:17;;;;;;;21.35;15.15;;;;;;;10.88;100.00;102092.56;5116521;28;20023;-71
2021/10/03 04:52:04;;;;;;;24.88;14.77;;;;;;;11.21;100.00;102095.28;5100323;28;20031;-71
2021/10/03 04:54:49;;;;;;;34.45;19.73;;;;;;;11.01;100.00;102096.13;5115177;28;20056;-71
2021/10/03 04:57:36;;;;;;;33.40;20.45;;;;;;;10.95;100.00;102093.47;5116899;28;20042;-71
2021/10/03 05:00:22;;;;;;;28.50;17.35;;;;;;;10.65;100.00;102093.38;5115915;28;20461;-72
2021/10/03 05:03:07;;;;;;;26.85;16.35;;;;;;;11.01;100.00;102098.75;5100404;28;20048;-71
2021/10/03 05:05:53;;;;;;;22.30;15.07;;;;;;;11.07;100.00;102093.50;5100809;28;20020;-71
2021/10/03 05:08:39;;;;;;;23.98;13.00;;;;;;;11.00;100.00;102097.84;5100827;28;20448;-71
2021/10/03 05:11:25;;;;;;;19.85;11.40;;;;;;;11.27;100.00;102097.03;5100739;28;20104;-71
2021/10/03 05:14:10;;;;;;;17.83;10.70;;;;;;;11.33;100.00;102111.03;5116417;28;20023;-71
2021/10/03 05:16:56;;;;;;;17.23;10.38;;;;;;;11.22;100.00;102104.91;5114244;28;20020;-71
2021/10/03 05:19:42;;;;;;;18.08;10.57;;;;;;;10.90;100.00;102105.69;5115253;28;20028;-72
2021/10/03 05:22:28;;;;;;;16.98;9.68;;;;;;;11.39;100.00;102112.81;5100296;28;20019;-71
2021/10/03 05:25:13;;;;;;;15.88;10.50;;;;;;;11.55;100.00;102112.84;5100827;28;20108;-72
2021/10/03 05:27:59;;;;;;;18.25;9.68;;;;;;;11.48;100.00;102121.56;5115241;28;20032;-72
2021/10/03 05:30:45;;;;;;;14.77;9.43;;;;;;;11.74;100.00;102114.59;5115086;28;20395;-72
2021/10/03 05:33:32;;;;;;;13.75;9.45;;;;;;;11.47;100.00;102124.19;5115141;28;20031;-72
2021/10/03 05:36:19;;;;;;;16.15;10.25;;;;;;;11.88;100.00;102122.47;5115833;28;20032;-72
2021/10/03 05:39:05;;;;;;;12.68;9.90;;;;;;;11.76;100.00;102122.47;5114834;28;20024;-72
2021/10/03 05:41:50;;;;;;;14.60;9.10;;;;;;;12.16;100.00;102114.59;5114563;28;20107;-73
2021/10/03 05:44:36;;;;;;;13.88;9.55;;;;;;;12.05;100.00;102123.38;5113917;28;20020;-73
2021/10/03 05:47:22;;;;;;;16.05;9.18;;;;;;;12.54;100.00;102125.88;5114882;28;20027;-73
2021/10/03 05:50:08;;;;;;;18.45;9.43;;;;;;;12.76;100.00;102121.41;5116027;28;20079;-72
2021/10/03 05:52:54;;;;;;;21.27;9.68;;;;;;;12.55;100.00;102122.38;5100057;28;20106;-73
2021/10/03 05:55:39;;;;;;;15.35;10.30;;;;;;;12.46;100.00;102122.38;5115143;28;20349;-72
2021/10/03 05:58:25;;;;;;;16.55;9.63;;;;;;;12.74;100.00;102131.06;5114670;28;20031;-73
2021/10/03 06:01:11;;;;;;;16.35;11.02;;;;;;;12.43;100.00;102129.41;5114989;28;20027;-73
2021/10/03 06:03:57;;;;;;;16.77;10.32;;;;;;;12.66;100.00;102135.47;5101027;28;20027;-72
2021/10/03 06:06:42;;;;;;;18.33;11.70;;;;;;;12.96;100.00;102136.22;5114814;28;20047;-73
2021/10/03 06:09:28;;;;;;;25.65;15.15;;;;;;;13.05;100.00;102141.47;5114851;28;20055;-73
2021/10/03 06:12:14;;;;;;;26.98;15.52;;;;;;;13.07;100.00;102144.97;5093504;28;20127;-72
2021/10/03 06:15:00;;;;;;;27.35;15.75;;;;;;;12.90;100.00;102130.97;5094184;28;20024;-73
2021/10/03 06:17:45;;;;;;;20.73;15.50;;;;;;;12.86;100.00;102141.53;5094122;28;20428;-73
2021/10/03 06:20:31;;;;;;;21.65;15.57;;;;;;;12.83;100.00;102139.78;5092972;28;20066;-72
2021/10/03 06:23:17;;;;;;;23.40;14.75;;;;;;;12.90;100.00;102140.66;5093803;28;20074;-73
2021/10/03 06:26:03;;;;;;;23.50;14.20;;;;;;;13.01;100.00;102142.38;5078844;28;20028;-73
2021/10/03 06:28:49;;;;;;;24.17;15.55;;;;;;;13.18;100.00;102153.69;5093878;28;20036;-73
2021/10/03 06:31:34;;;;;;;24.95;15.05;;;;;;;13.05;100.00;102144.09;5094150;28;20364;-73
2021/10/03 06:34:20;;;;;;;22.35;15.25;;;;;;;13.11;100.00;102145.84;5092898;28;20032;-74
2021/10/03 06:37:06;;;;;;;21.23;14.45;;;;;;;13.14;100.00;102149.31;5093926;28;20024;-73
2021/10/03 06:39:52;;;;;;;22.10;14.98;;;;;;;13.23;100.00;102157.16;5093739;28;20100;-73
2021/10/03 06:42:37;;;;;;;32.13;15.15;;;;;;;13.47;100.00;102154.38;5092822;28;20035;-72
2021/10/03 06:45:23;;;;;;;29.15;15.02;;;;;;;13.42;100.00;102152.69;5092895;28;20043;-72
2021/10/03 06:48:10;;;;;;;22.83;14.57;;;;;;;13.50;100.00;102151.72;5094563;28;20358;-73
2021/10/03 06:50:56;;;;;;;22.88;15.65;;;;;;;14.07;100.00;102159.19;5093867;28;20459;-73
2021/10/03 06:53:42;;;;;;;23.25;13.63;;;;;;;13.85;100.00;102151.47;5094077;28;20032;-73
2021/10/03 06:56:28;;;;;;;16.35;9.95;;;;;;;13.89;100.00;102154.09;5094954;28;20075;-73
2021/10/03 06:59:15;;;;;;;13.73;9.20;;;;;;;14.30;100.00;102153.72;5093828;28;20432;-72
2021/10/03 07:02:06;;;;;;;20.55;11.80;;;;;;;14.87;100.00;102152.22;5094150;28;20028;-73
2021/10/03 07:04:53;;;;;;;20.77;10.40;;;;;;;14.87;100.00;102153.06;5092464;28;20028;-73
2021/10/03 07:07:39;;;;;;;29.50;10.68;;;;;;;14.81;100.00;102147.88;5082161;28;20032;-72
2021/10/03 07:10:24;;;;;;;22.40;10.77;;;;;;;15.02;100.00;102149.41;5103304;28;20081;-73
2021/10/03 07:13:11;;;;;;;21.27;11.02;;;;;;;14.97;100.00;102152.09;5118340;28;20460;-73
2021/10/03 07:15:57;;;;;;;23.13;10.85;;;;;;;15.27;100.00;102148.19;5117105;28;20027;-74
2021/10/03 07:18:44;;;;;;;37.63;14.15;;;;;;;16.00;100.00;102149.69;5104296;28;20020;-73
2021/10/03 07:21:30;;;;;;;36.75;14.43;;;;;;;15.90;100.00;102156.03;5118078;28;20451;-73
2021/10/03 07:24:15;;;;;;;32.80;14.02;;;;;;;15.55;100.00;102160.13;5118685;28;20039;-72
2021/10/03 07:27:02;;;;;;;31.60;14.15;;;;;;;15.86;100.00;102156.09;5117520;28;20031;-73
2021/10/03 07:29:48;;;;;;;35.60;13.77;;;;;;;16.09;100.00;102159.22;5117943;28;20106;-72
2021/10/03 07:32:34;;;;;;;27.58;13.20;;;;;;;16.68;98.26;102156.41;5117677;28;20039;-72
2021/10/03 07:35:20;;;;;;;32.22;14.02;;;;;;;16.96;97.94;102168.19;5116189;28;20077;-73
2021/10/03 07:38:06;;;;;;;33.58;14.48;;;;;;;16.84;98.73;102169.28;5117962;28;20019;-73
2021/10/03 07:40:52;;;;;;;30.95;12.90;;;;;;;17.03;95.43;102165.38;5102892;28;20015;-73
2021/10/03 07:43:38;;;;;;;27.80;11.80;;;;;;;16.78;96.42;102169.41;5118069;28;20032;-73
2021/10/03 07:46:23;;;;;;;26.45;11.02;;;;;;;16.76;97.42;102173.84;5117172;28;20023;-73
2021/10/03 07:49:09;;;;;;;17.38;9.50;;;;;;;17.15;93.79;102172.16;5117543;28;20027;-72
2021/10/03 07:51:55;;;;;;;17.83;9.20;;;;;;;16.60;96.54;102174.19;5117251;28;20058;-71
2021/10/03 07:54:41;;;;;;;15.15;8.80;;;;;;;16.98;95.77;102172.53;5117886;28;20046;-71
2021/10/03 07:57:27;;;;;;;15.80;8.75;;;;;;;17.22;90.56;102176.44;5117127;28;20128;-72
2021/10/03 08:00:13;;;;;;;15.05;9.27;;;;;;;17.02;89.23;102174.22;5116511;28;20024;-71
2021/10/03 08:02:59;;;;;;;12.60;7.80;;;;;;;17.62;84.58;102178.22;5102682;28;20042;-72
2021/10/03 08:05:45;;;;;;;12.55;7.75;;;;;;;17.56;81.36;102181.00;5102462;28;20062;-72
2021/10/03 08:08:31;;;;;;;17.67;7.78;;;;;;;17.87;79.54;102167.88;5115687;28;20024;-72
2021/10/03 08:11:16;;;;;;;9.05;6.85;;;;;;;18.10;77.05;102174.38;5117454;28;20047;-72
2021/10/03 08:14:02;;;;;;;17.33;7.70;;;;;;;18.41;73.36;102166.53;5117413;28;20164;-71
2021/10/03 08:16:49;;;;;;;12.98;6.38;;;;;;;18.72;70.83;102159.44;5116672;28;20032;-72
2021/10/03 08:19:35;;;;;;;11.02;5.88;;;;;;;18.94;69.88;102165.91;5117288;28;20031;-72
2021/10/03 08:22:20;;;;;;;12.43;6.40;;;;;;;18.95;68.32;102171.19;5115871;28;20466;-72
2021/10/03 08:25:08;;;;;;;13.20;6.05;;;;;;;19.39;65.18;102167.22;5101810;28;20055;-72
2021/10/03 08:27:54;;;;;;;10.82;5.30;;;;;;;19.28;66.25;102166.66;5101770;28;20039;-72
2021/10/03 08:30:40;;;;;;;16.48;5.93;;;;;;;18.82;66.08;102169.75;5101678;28;20033;-71
2021/10/03 08:33:26;;;;;;;10.63;6.13;;;;;;;18.72;65.90;102164.75;5115322;28;20394;-72
2021/10/03 08:36:13;;;;;;;8.93;5.60;;;;;;;19.38;63.96;102169.91;5117152;28;20031;-71
2021/10/03 08:38:59;;;;;;;9.57;5.28;;;;;;;19.75;62.59;102171.38;5101927;28;20020;-72
2021/10/03 08:41:46;;;;;;;7.22;4.88;;;;;;;19.56;61.11;102172.03;5101527;28;20114;-72
2021/10/03 08:44:31;;;;;;;12.88;5.70;;;;;;;18.91;62.55;102168.63;5101744;28;20038;-72
2021/10/03 08:47:17;;;;;;;11.32;5.40;;;;;;;19.53;60.49;102170.31;5101054;28;20020;-71
2021/10/03 08:50:09;;;;;;;9.57;5.57;;;;;;;19.41;60.76;102164.50;5117133;28;20032;-71
2021/10/03 08:52:55;;;;;;;10.18;6.00;;;;;;;19.53;60.29;102169.44;5115021;28;20035;-71
2021/10/03 08:55:41;;;;;;;18.67;6.85;;;;;;;19.21;61.42;102167.75;5116139;28;20469;-71
2021/10/03 08:58:27;;;;;;;13.10;6.72;;;;;;;19.57;60.32;102158.66;5115871;28;20359;-72
2021/10/03 09:01:13;;;;;;;12.82;6.93;;;;;;;19.55;60.47;102159.63;5116086;28;20047;-72
2021/10/03 09:04:00;;;;;;;11.68;6.75;;;;;;;19.82;59.33;102156.97;5115804;28;20050;-72
2021/10/03 09:07:06;;;;;;;13.65;6.50;;;;;;;19.84;58.39;102154.25;5116011;28;20035;-72
2021/10/03 09:09:55;;;;;;;10.82;6.28;;;;;;;19.86;58.05;102152.41;5115728;28;20080;-72
2021/10/03 09:12:41;;;;;;;11.80;6.20;;;;;;;20.08;57.11;102132.13;5115864;28;20421;-72
2021/10/03 09:15:29;;;;;;;10.52;5.80;;;;;;;19.72;57.07;102144.03;5100926;28;20038;-73
2021/10/03 09:18:21;;;;;;;9.45;5.30;;;;;;;19.68;56.93;102150.38;5115767;28;20103;-71
2021/10/03 09:21:08;;;;;;;9.57;5.35;;;;;;;19.80;57.11;102137.50;5115541;28;20012;-73
2021/10/03 09:24:07;;;;;;;8.52;5.00;;;;;;;19.60;56.51;102131.97;5100943;28;20046;-72
2021/10/03 09:27:02;;;;;;;10.45;5.30;;;;;;;19.94;55.20;102129.97;5114735;28;20413;-72
2021/10/03 09:29:47;;;;;;;9.98;5.43;;;;;;;19.56;56.25;102138.31;5114599;28;20028;-72
2021/10/03 09:32:33;;;;;;;10.38;6.18;;;;;;;19.65;55.21;102137.16;5116312;28;20341;-72
2021/10/03 09:35:19;;;;;;;11.27;5.85;;;;;;;19.62;54.42;102139.91;5115370;28;20042;-71
2021/10/03 09:38:09;;;;;;;11.40;5.55;;;;;;;19.79;53.18;102141.09;5100805;28;20020;-72
2021/10/03 09:41:04;;;;;;;9.18;6.20;;;;;;;19.52;53.18;102126.03;5100175;28;20020;-72
2021/10/03 09:43:57;;;;;;;9.40;6.20;;;;;;;19.66;53.83;102125.59;5115277;28;20039;-71
2021/10/03 09:46:47;;;;;;;9.48;5.70;;;;;;;20.02;53.27;102119.94;5114985;28;20023;-73
2021/10/03 09:49:33;;;;;;;12.80;6.00;;;;;;;19.73;52.52;102114.69;5115704;28;20042;-72
2021/10/03 09:52:19;;;;;;;8.77;5.75;;;;;;;19.71;53.29;102113.88;5114937;28;20085;-73
2021/10/03 09:55:09;;;;;;;7.45;5.63;;;;;;;20.04;53.43;102112.75;5115603;28;20111;-73
2021/10/03 09:57:56;;;;;;;9.40;5.80;;;;;;;20.01;51.92;102109.34;5114186;28;20072;-71
2021/10/03 10:00:42;;;;;;;10.05;5.32;;;;;;;19.76;52.54;102103.97;5100413;28;20061;-72
2021/10/03 10:03:28;;;;;;;10.48;5.07;;;;;;;19.72;53.58;102112.13;5115173;28;20063;-74
2021/10/03 10:06:15;;;;;;;11.40;5.22;;;;;;;19.55;51.25;102107.34;5114777;28;20031;-72
2021/10/03 10:09:12;;;;;;;8.18;4.90;;;;;;;19.96;51.61;102096.19;5113962;28;20023;-73
2021/10/03 10:12:06;;;;;;;9.32;5.03;;;;;;;19.68;51.39;102087.38;5114269;28;20112;-71
2021/10/03 10:15:01;;;;;;;8.57;4.80;;;;;;;20.00;50.22;102092.50;5114306;28;20455;-72
2021/10/03 10:17:46;;;;;;;8.95;4.78;;;;;;;20.06;50.65;102083.44;5114181;28;20115;-72
2021/10/03 10:20:33;;;;;;;12.27;5.07;;;;;;;20.05;49.92;102076.38;5115130;28;20497;-71
2021/10/03 10:23:27;;;;;;;8.65;4.80;;;;;;;20.15;49.91;102076.03;5113719;28;20059;-71
2021/10/03 10:26:36;;;;;;;7.65;5.15;;;;;;;20.20;49.01;102076.72;5099109;28;20033;-72
2021/10/03 10:29:54;;;;;;;9.30;4.80;;;;;;;20.45;49.41;102063.41;5114351;28;20228;-72
2021/10/03 10:32:56;;;;;;;10.13;4.72;;;;;;;20.97;47.73;102063.22;5114425;28;20112;-73
2021/10/03 10:35:44;;;;;;;10.75;4.35;;;;;;;20.32;48.83;102059.44;5113880;28;20057;-72
2021/10/03 10:38:30;;;;;;;9.27;4.75;;;;;;;20.31;48.23;102055.94;5114730;28;20038;-73
2021/10/03 10:41:35;;;;;;;9.43;4.18;;;;;;;20.90;47.91;102054.53;5114835;28;20126;-73
2021/10/03 10:44:27;;;;;;;6.05;4.60;;;;;;;20.61;48.38;102053.94;5103971;28;20019;-72
2021/10/03 10:47:21;;;;;;;7.53;4.57;;;;;;;20.96;47.18;102057.00;5118674;28;20209;-71
2021/10/03 10:50:13;;;;;;;8.50;4.40;;;;;;;20.92;47.38;102050.06;5118904;28;20024;-73
2021/10/03 10:53:35;;;;;;;7.15;4.50;;;;;;;20.92;46.00;102047.41;5118081;28;20106;-72
2021/10/03 10:56:27;;;;;;;5.43;4.10;;;;;;;20.95;46.75;102038.41;5004126;28;20030;-72
2021/10/03 10:59:13;;;;;;;7.20;4.03;;;;;;;21.08;46.82;102045.00;5117503;28;20106;-73
2021/10/03 11:01:59;;;;;;;8.05;4.30;;;;;;;21.10;46.46;102040.47;5103737;28;20039;-73
2021/10/03 11:04:45;;;;;;;8.85;3.70;;;;;;;21.21;46.71;102033.78;5118390;28;20030;-72
2021/10/03 11:08:08;;;;;;;6.70;4.18;;;;;;;21.46;46.61;102037.16;5118053;28;20027;-72
2021/10/03 11:10:57;;;;;;;8.32;4.28;;;;;;;21.17;46.53;102041.94;5106975;28;20428;-71
2021/10/03 11:13:51;;;;;;;6.90;4.22;;;;;;;21.53;45.81;102022.66;5083346;28;20032;-73
2021/10/03 11:16:48;;;;;;;7.32;3.90;;;;;;;21.97;44.60;102024.31;5081827;28;20020;-73
2021/10/03 11:19:43;;;;;;;7.00;3.92;;;;;;;21.88;45.13;102026.53;5082619;28;20356;-73
2021/10/03 11:22:35;;;;;;;6.72;4.15;;;;;;;21.86;45.25;102031.91;5081825;28;20107;-72
2021/10/03 11:25:22;;;;;;;6.22;4.10;;;;;;;22.24;44.08;102020.44;5097202;28;20039;-72
2021/10/03 11:28:08;;;;;;;5.15;3.70;;;;;;;22.43;43.65;102026.66;5096625;28;20034;-73
2021/10/03 11:30:54;;;;;;;6.57;3.35;;;;;;;22.24;43.70;102025.78;5097622;28;20133;-72
2021/10/03 11:33:47;;;;;;;5.78;4.05;;;;;;;22.16;43.96;102019.03;5097553;28;20475;-74
2021/10/03 11:36:46;;;;;;;7.47;3.83;;;;;;;21.69;44.70;102015.75;5083156;28;20418;-72
2021/10/03 11:39:33;;;;;;;5.47;3.67;;;;;;;21.71;44.41;102021.94;5096684;28;20020;-72
2021/10/03 11:42:43;;;;;;;7.25;3.67;;;;;;;22.43;43.42;102009.78;5081773;28;20415;-72
2021/10/03 11:45:34;;;;;;;7.20;3.60;;;;;;;22.10;43.85;102012.16;5097386;28;20046;-73
2021/10/03 11:48:24;;;;;;;5.63;3.80;;;;;;;22.19;43.02;102011.75;5081853;28;20032;-73
2021/10/03 11:51:10;;;;;;;8.18;3.60;;;;;;;22.04;42.78;102004.44;5097100;28;20032;-73
2021/10/03 11:53:55;;;;;;;6.60;3.40;;;;;;;22.26;43.66;102005.19;5097190;28;20485;-73
2021/10/03 11:56:41;;;;;;;10.35;4.00;;;;;;;22.11;43.30;102003.22;5082537;28;20114;-73
2021/10/03 11:59:27;;;;;;;10.95;3.53;;;;;;;21.58;44.33;101999.31;5097256;28;20437;-73
2021/10/03 12:02:16;;;;;;;7.20;3.60;;;;;;;21.85;44.53;101992.84;5097506;28;20024;-73
2021/10/03 12:05:04;;;;;;;6.07;3.80;;;;;;;22.19;43.54;101993.06;5095147;28;20030;-73
2021/10/03 12:08:20;;;;;;;9.07;3.83;;;;;;;21.93;43.88;101995.16;5095846;28;20039;-72
2021/10/03 12:11:06;;;;;;;9.73;4.00;;;;;;;22.02;43.59;101987.59;5100688;28;20111;-74
2021/10/03 12:14:02;;;;;;;4.82;3.30;;;;;;;21.70;43.70;101993.50;5117148;28;20020;-72
2021/10/03 12:16:53;;;;;;;9.27;3.70;;;;;;;21.20;45.49;101985.84;5115992;28;20027;-73
2021/10/03 12:19:58;;;;;;;6.65;3.92;;;;;;;21.70;44.92;101980.16;5117071;28;20054;-73
2021/10/03 12:22:55;;;;;;;6.55;3.85;;;;;;;21.61;44.88;101982.31;5116679;28;20023;-73
2021/10/03 12:25:41;;;;;;;4.38;3.38;;;;;;;22.14;44.68;101979.06;5103069;28;20357;-73
2021/10/03 12:28:29;;;;;;;7.80;4.18;;;;;;;21.16;44.81;101977.13;5100738;28;20091;-73
2021/10/03 12:31:35;;;;;;;6.30;4.00;;;;;;;21.44;45.29;101971.50;5117799;28;20084;-72
2021/10/03 12:34:21;;;;;;;6.80;3.60;;;;;;;21.76;44.62;101969.22;5101338;28;20024;-74
2021/10/03 12:37:15;;;;;;;8.15;3.53;;;;;;;21.94;43.66;101976.41;5116580;28;20487;-72
2021/10/03 12:40:05;;;;;;;6.00;3.85;;;;;;;21.64;43.93;101964.38;5116390;28;20351;-73
2021/10/03 12:42:51;;;;;;;8.70;3.58;;;;;;;21.57;44.06;101965.56;5116829;28;20447;-73